createdAt,value
2019-02-02T00:00:42.323Z,16.30
2019-02-02T00:03:14.666Z,16.73
2019-02-02T00:05:46.807Z,16.30
2019-02-02T00:13:20.817Z,16.82
2019-02-02T00:15:53.276Z,19.20
2019-02-02T00:18:25.831Z,17.25
2019-02-02T00:20:57.815Z,16.20
2019-02-02T00:23:29.842Z,15.83
2019-02-02T00:26:02.323Z,17.10
2019-02-02T00:28:34.338Z,18.70
2019-02-02T00:31:06.531Z,16.77
2019-02-02T00:33:38.777Z,15.63
2019-02-02T00:38:41.846Z,17.35
2019-02-02T00:41:14.789Z,15.50
2019-02-02T00:48:48.883Z,14.90
2019-02-02T00:51:20.760Z,16.62
2019-02-02T00:53:52.822Z,16.27
2019-02-02T00:56:24.852Z,17.48
2019-02-02T01:01:29.708Z,17.23
2019-02-02T01:06:32.820Z,17.05
2019-02-02T01:09:09.362Z,16.67
2019-02-02T01:11:41.327Z,17.70
2019-02-02T01:14:13.443Z,17.12
2019-02-02T01:16:45.665Z,16.82
2019-02-02T01:19:17.774Z,18.42
2019-02-02T01:21:49.807Z,15.45
2019-02-02T01:24:21.842Z,17.92
2019-02-02T01:26:53.848Z,16.40
2019-02-02T01:29:25.814Z,16.87
2019-02-02T01:31:57.794Z,14.87
2019-02-02T01:34:29.792Z,16.70
2019-02-02T01:37:01.775Z,15.88
2019-02-02T01:39:34.376Z,20.52
2019-02-02T01:42:06.811Z,17.02
2019-02-02T01:44:38.850Z,16.57
2019-02-02T01:47:10.811Z,17.27
2019-02-02T01:49:43.816Z,18.75
2019-02-02T01:52:16.312Z,19.12
2019-02-02T01:54:48.792Z,17.57
2019-02-02T01:57:20.850Z,17.30
2019-02-02T01:59:52.864Z,17.80
2019-02-02T02:02:24.796Z,18.15
2019-02-02T02:04:56.826Z,17.70
2019-02-02T02:07:28.824Z,17.98
2019-02-02T02:10:00.835Z,17.65
2019-02-02T02:12:33.047Z,20.68
2019-02-02T02:15:04.992Z,15.88
2019-02-02T02:17:36.780Z,15.08
2019-02-02T02:20:09.827Z,16.37
2019-02-02T02:22:41.817Z,17.42
2019-02-02T02:25:17.812Z,17.52
2019-02-02T02:27:50.315Z,15.60
2019-02-02T02:30:24.732Z,15.65
2019-02-02T02:35:27.798Z,16.30
2019-02-02T02:37:59.832Z,15.70
2019-02-02T02:40:31.779Z,16.27
2019-02-02T02:43:03.793Z,15.68
2019-02-02T02:45:35.835Z,16.48
2019-02-02T02:48:07.854Z,16.42
2019-02-02T02:50:39.832Z,15.25
2019-02-02T02:53:12.324Z,18.10
2019-02-02T02:55:44.818Z,17.12
2019-02-02T02:58:16.818Z,17.05
2019-02-02T03:00:48.810Z,16.87
2019-02-02T03:03:20.804Z,15.78
2019-02-02T03:05:52.822Z,14.60
2019-02-02T03:08:24.828Z,16.35
2019-02-02T03:10:56.842Z,16.67
2019-02-02T03:13:28.842Z,17.65
2019-02-02T03:16:01.112Z,17.17
2019-02-02T03:18:33.324Z,16.05
2019-02-02T03:21:05.407Z,17.30
2019-02-02T03:23:37.786Z,15.23
2019-02-02T03:28:52.793Z,14.28
2019-02-02T03:31:14.844Z,14.95
2019-02-02T03:33:46.818Z,15.53
2019-02-02T03:36:18.849Z,15.08
2019-02-02T03:38:51.800Z,14.68
2019-02-02T03:46:25.848Z,16.87
2019-02-02T03:48:57.799Z,19.45
2019-02-02T03:54:08.370Z,16.75
2019-02-02T03:56:34.827Z,17.48
2019-02-02T03:59:07.242Z,15.30
2019-02-02T04:01:39.416Z,16.52
2019-02-02T04:04:11.802Z,16.48
2019-02-02T04:06:43.822Z,15.33
2019-02-02T04:09:15.784Z,15.35
2019-02-02T04:11:47.817Z,18.00
2019-02-02T04:14:19.826Z,16.42
2019-02-02T04:16:51.813Z,18.40
2019-02-02T04:19:24.319Z,16.07
2019-02-02T04:21:56.368Z,16.90
2019-02-02T04:24:28.999Z,18.23
2019-02-02T04:27:01.454Z,13.78
2019-02-02T04:29:33.491Z,15.83
2019-02-02T04:32:05.848Z,16.97
2019-02-02T04:34:37.854Z,17.37
2019-02-02T04:37:09.804Z,16.70
2019-02-02T04:39:41.811Z,15.85
2019-02-02T04:42:13.821Z,17.75
2019-02-02T04:44:46.315Z,16.93
2019-02-02T04:47:18.867Z,16.00
2019-02-02T04:49:50.819Z,16.65
2019-02-02T04:57:26.365Z,17.85
2019-02-02T04:59:58.808Z,15.72
2019-02-02T05:02:30.830Z,16.80
2019-02-02T05:05:02.859Z,18.60
2019-02-02T05:07:35.331Z,19.65
2019-02-02T05:10:08.309Z,17.87
2019-02-02T05:12:43.775Z,16.82
2019-02-02T05:17:46.856Z,15.60
2019-02-02T05:20:18.854Z,16.80
2019-02-02T05:22:51.325Z,16.70
2019-02-02T05:25:23.539Z,20.32
2019-02-02T05:27:55.837Z,21.50
2019-02-02T05:30:31.649Z,19.17
2019-02-02T05:33:04.318Z,21.77
2019-02-02T05:35:36.776Z,17.87
2019-02-02T05:40:39.803Z,20.52
2019-02-02T05:43:11.771Z,20.80
2019-02-02T05:45:43.810Z,20.00
2019-02-02T05:48:15.911Z,19.20
2019-02-02T05:50:47.954Z,17.52
2019-02-02T05:53:19.808Z,20.55
2019-02-02T05:55:51.796Z,20.12
2019-02-02T06:03:27.790Z,32.58
2019-02-02T06:08:31.276Z,30.17
2019-02-02T06:11:03.298Z,31.82
2019-02-02T06:13:35.350Z,31.70
2019-02-02T06:16:07.769Z,31.20
2019-02-02T06:21:10.839Z,35.83
2019-02-02T06:23:43.309Z,32.45
2019-02-02T06:26:15.795Z,31.90
2019-02-02T06:28:47.902Z,32.70
2019-02-02T06:31:20.311Z,32.48
2019-02-02T06:33:52.310Z,35.45
2019-02-02T06:36:24.323Z,36.85
2019-02-02T06:38:56.661Z,34.23
2019-02-02T06:41:28.951Z,35.13
2019-02-02T06:44:01.313Z,33.67
2019-02-02T06:46:43.217Z,32.88
2019-02-02T06:49:07.593Z,36.33
2019-02-02T06:51:39.807Z,37.15
2019-02-02T06:54:11.813Z,37.50
2019-02-02T06:56:43.842Z,35.43
2019-02-02T06:59:15.846Z,34.15
2019-02-02T07:01:47.855Z,36.15
2019-02-02T07:04:20.015Z,36.33
2019-02-02T07:06:52.310Z,37.38
2019-02-02T07:09:24.834Z,38.58
2019-02-02T07:11:56.836Z,35.48
2019-02-02T07:14:28.838Z,32.73
2019-02-02T07:17:00.801Z,34.50
2019-02-02T07:19:32.790Z,33.18
2019-02-02T07:22:04.778Z,34.15
2019-02-02T07:29:38.952Z,25.60
2019-02-02T07:32:10.818Z,30.02
2019-02-02T07:34:42.808Z,29.15
2019-02-02T07:37:16.899Z,22.67
2019-02-02T07:39:49.304Z,25.57
2019-02-02T07:42:21.797Z,21.10
2019-02-02T07:49:55.837Z,27.02
2019-02-02T07:52:27.789Z,27.25
2019-02-02T08:02:32.772Z,22.55
2019-02-02T08:05:04.840Z,22.95
2019-02-02T08:07:36.798Z,28.73
2019-02-02T08:10:11.384Z,26.43
2019-02-02T08:12:43.819Z,27.77
2019-02-02T08:15:21.125Z,25.65
2019-02-02T08:17:53.302Z,22.93
2019-02-02T08:20:25.316Z,22.13
2019-02-02T08:22:57.808Z,24.25
2019-02-02T08:30:35.828Z,29.50
2019-02-02T08:33:08.866Z,26.90
2019-02-02T08:35:41.332Z,24.52
2019-02-02T08:38:13.788Z,25.50
2019-02-02T08:45:47.829Z,35.83
2019-02-02T08:48:20.313Z,40.75
2019-02-02T08:50:52.783Z,41.37
2019-02-02T08:53:24.795Z,35.15
2019-02-02T08:55:56.843Z,38.38
2019-02-02T08:58:28.786Z,36.10
2019-02-02T09:03:33.878Z,35.88
2019-02-02T09:06:05.803Z,30.85
2019-02-02T09:08:37.812Z,30.30
2019-02-02T09:11:10.309Z,31.80
2019-02-02T09:13:42.276Z,29.67
2019-02-02T09:16:14.318Z,27.17
2019-02-02T09:18:46.415Z,21.17
2019-02-02T09:21:18.490Z,24.60
2019-02-02T09:23:50.711Z,23.57
2019-02-02T09:31:24.452Z,25.75
2019-02-02T09:33:56.874Z,25.72
2019-02-02T09:36:28.826Z,27.62
2019-02-02T09:39:00.808Z,22.40
2019-02-02T09:41:32.841Z,26.33
2019-02-02T09:44:04.826Z,23.65
2019-02-02T09:46:36.983Z,25.12
2019-02-02T09:49:08.778Z,25.32
2019-02-02T09:51:41.287Z,24.60
2019-02-02T09:54:13.635Z,28.05
2019-02-02T09:56:45.822Z,23.92
2019-02-02T09:59:17.827Z,21.60
2019-02-02T10:01:49.786Z,30.80
2019-02-02T10:06:52.795Z,20.73
2019-02-02T10:09:24.857Z,26.70
2019-02-02T10:11:57.003Z,24.45
2019-02-02T10:14:29.373Z,27.05
2019-02-02T10:18:58.071Z,24.03
2019-02-02T10:21:30.483Z,26.62
2019-02-02T10:24:03.220Z,24.90
2019-02-02T10:26:35.856Z,26.35
2019-02-02T10:29:08.079Z,25.48
2019-02-02T10:31:43.806Z,28.00
2019-02-02T10:34:15.841Z,24.18
2019-02-02T10:36:47.907Z,27.55
2019-02-02T10:39:19.838Z,26.15
2019-02-02T10:41:52.320Z,24.82
2019-02-02T10:44:24.643Z,24.63
2019-02-02T10:49:28.355Z,30.55
2019-02-02T10:52:00.852Z,25.43
2019-02-02T10:54:33.677Z,26.93
2019-02-02T10:57:05.883Z,29.12
2019-02-02T10:59:38.035Z,26.85
2019-02-02T11:02:10.309Z,29.18
2019-02-02T11:04:42.842Z,30.12
2019-02-02T11:07:15.125Z,29.92
2019-02-02T11:09:47.863Z,24.95
2019-02-02T11:12:20.136Z,21.73
2019-02-02T11:14:52.997Z,24.30
2019-02-02T11:17:25.829Z,26.25
2019-02-02T11:19:58.498Z,23.60
2019-02-02T11:22:30.494Z,25.37
2019-02-02T11:25:02.300Z,23.07
2019-02-02T11:27:35.067Z,20.75
2019-02-02T11:30:09.856Z,21.80
2019-02-02T11:32:41.897Z,22.58
2019-02-02T11:35:15.907Z,23.98
2019-02-02T11:37:47.765Z,25.65
2019-02-02T11:42:57.054Z,25.70
2019-02-02T11:45:28.741Z,27.25
2019-02-02T11:48:01.306Z,26.40
2019-02-02T11:50:33.068Z,23.30
2019-02-02T11:53:05.303Z,31.87
2019-02-02T11:55:36.902Z,24.72
2019-02-02T11:58:23.343Z,31.68
2019-02-02T12:00:55.454Z,23.62
2019-02-02T12:03:27.303Z,29.40
2019-02-02T12:05:58.910Z,24.55
2019-02-02T12:08:30.776Z,22.32
2019-02-02T12:13:35.934Z,24.15
2019-02-02T12:16:07.749Z,25.17
2019-02-02T12:21:11.839Z,26.80
2019-02-02T12:23:43.790Z,27.37
2019-02-02T12:26:16.042Z,27.70
2019-02-02T12:28:47.799Z,23.80
2019-02-02T12:31:19.728Z,22.98
2019-02-02T12:36:25.862Z,22.02
2019-02-02T12:38:57.870Z,23.22
2019-02-02T12:41:29.749Z,24.10
2019-02-02T12:46:33.287Z,24.67
2019-02-02T12:49:05.302Z,26.02
2019-02-02T12:51:37.454Z,25.48
2019-02-02T12:54:09.309Z,25.23
2019-02-02T12:56:40.859Z,25.17
2019-02-02T12:59:12.755Z,21.15
2019-02-02T13:04:15.296Z,31.90
2019-02-02T13:06:47.306Z,31.37
2019-02-02T13:09:18.859Z,28.47
2019-02-02T13:11:50.376Z,30.25
2019-02-02T13:14:22.306Z,29.72
2019-02-02T13:16:53.859Z,32.75
2019-02-02T13:19:25.725Z,30.62
2019-02-02T13:24:28.434Z,35.40
2019-02-02T13:27:00.630Z,30.32
2019-02-02T13:29:32.406Z,32.33
2019-02-02T13:32:04.066Z,23.18
2019-02-02T13:34:35.757Z,28.45
2019-02-02T13:39:40.422Z,43.33
2019-02-02T13:42:16.137Z,36.80
2019-02-02T13:44:48.343Z,34.10
2019-02-02T13:47:20.393Z,41.18
2019-02-02T13:49:52.311Z,41.77
2019-02-02T13:52:24.325Z,44.08
2019-02-02T13:54:56.268Z,45.88
2019-02-02T13:57:27.849Z,52.70
2019-02-02T13:59:59.771Z,51.42
2019-02-02T14:05:04.208Z,50.17
2019-02-02T14:07:35.812Z,47.30
2019-02-02T14:10:09.794Z,50.73
2019-02-02T14:12:41.376Z,45.90
2019-02-02T14:15:13.812Z,47.53
2019-02-02T14:17:45.880Z,46.20
2019-02-02T14:20:17.793Z,41.02
2019-02-02T14:25:20.307Z,39.80
2019-02-02T14:27:51.858Z,36.20
2019-02-02T14:30:26.306Z,32.08
2019-02-02T14:32:58.751Z,30.75
2019-02-02T14:38:01.759Z,30.05
2019-02-02T14:43:04.386Z,32.03
2019-02-02T14:45:36.067Z,25.68
2019-02-02T14:48:07.745Z,24.30
2019-02-02T14:53:10.301Z,20.05
2019-02-02T14:55:41.890Z,23.87
2019-02-02T14:58:13.836Z,23.32
2019-02-02T15:00:45.755Z,22.87
2019-02-02T15:05:50.771Z,39.90
2019-02-02T15:08:22.373Z,37.93
2019-02-02T15:10:54.068Z,33.30
2019-02-02T15:13:25.741Z,23.75
2019-02-02T15:18:28.345Z,24.77
2019-02-02T15:21:00.401Z,28.15
2019-02-02T15:23:32.006Z,34.95
2019-02-02T15:26:04.736Z,35.92
2019-02-02T15:31:07.691Z,34.20
2019-02-02T15:38:41.816Z,33.85
2019-02-02T15:41:13.618Z,33.25
2019-02-02T15:43:45.418Z,32.17
2019-02-02T15:46:17.064Z,36.28
2019-02-02T15:48:48.749Z,31.35
2019-02-02T15:53:51.314Z,39.88
2019-02-02T15:56:23.063Z,40.05
2019-02-02T15:58:57.770Z,41.65
2019-02-02T16:04:00.302Z,38.17
2019-02-02T16:06:32.301Z,40.92
2019-02-02T16:09:05.370Z,36.28
2019-02-02T16:11:37.308Z,32.98
2019-02-02T16:14:09.501Z,33.70
2019-02-02T16:16:41.260Z,37.00
2019-02-02T16:19:13.422Z,31.07
2019-02-02T16:21:45.305Z,24.95
2019-02-02T16:24:17.046Z,23.80
2019-02-02T16:26:48.823Z,33.15
2019-02-02T16:29:20.754Z,22.87
2019-02-02T16:34:28.753Z,23.67
2019-02-02T16:39:31.307Z,23.35
2019-02-02T16:42:03.307Z,28.10
2019-02-02T16:44:34.833Z,24.47
2019-02-02T16:47:06.859Z,27.35
2019-02-02T16:49:38.766Z,27.93
2019-02-02T16:54:41.361Z,25.43
2019-02-02T16:57:13.024Z,33.53
2019-02-02T16:59:44.778Z,40.40
2019-02-02T17:04:47.584Z,46.95
2019-02-02T17:07:18.649Z,42.88
2019-02-02T17:09:50.732Z,44.67
2019-02-02T17:14:55.700Z,41.18
2019-02-02T17:17:26.805Z,45.00
2019-02-02T17:19:58.571Z,42.78
2019-02-02T17:22:30.403Z,41.70
2019-02-02T17:25:02.035Z,44.88
2019-02-02T17:27:33.822Z,47.20
2019-02-02T17:30:07.376Z,44.75
2019-02-02T17:32:39.077Z,45.75
2019-02-02T17:35:11.913Z,41.18
2019-02-02T17:37:43.410Z,48.68
2019-02-02T17:40:19.993Z,44.77
2019-02-02T17:42:51.860Z,48.20
2019-02-02T17:45:24.102Z,44.90
2019-02-02T17:47:57.003Z,43.13
2019-02-02T17:50:29.891Z,41.00
2019-02-02T17:53:02.490Z,42.23
2019-02-02T17:55:35.514Z,41.77
2019-02-02T17:58:07.829Z,44.18
2019-02-02T18:00:54.757Z,33.88
2019-02-02T18:03:27.327Z,39.78
2019-02-02T18:05:59.816Z,41.68
2019-02-02T18:08:31.817Z,37.38
2019-02-02T18:11:03.867Z,37.10
2019-02-02T18:13:35.993Z,38.23
2019-02-02T18:16:07.916Z,34.85
2019-02-02T18:18:39.857Z,32.88
2019-02-02T18:21:11.840Z,28.87
2019-02-02T18:23:43.813Z,32.83
2019-02-02T18:26:15.810Z,32.65
2019-02-02T18:28:47.878Z,31.30
2019-02-02T18:31:19.851Z,31.37
2019-02-02T18:33:51.825Z,27.65
2019-02-02T18:36:23.844Z,27.58
2019-02-02T18:38:55.884Z,32.30
2019-02-02T18:41:27.819Z,28.38
2019-02-02T18:43:59.809Z,27.30
2019-02-02T18:46:31.877Z,28.00
2019-02-02T18:49:03.864Z,25.23
2019-02-02T18:51:35.869Z,27.48
2019-02-02T18:54:08.331Z,29.60
2019-02-02T18:56:40.871Z,29.10
2019-02-02T18:59:12.819Z,28.70
2019-02-02T19:01:44.860Z,27.67
2019-02-02T19:04:16.852Z,29.15
2019-02-02T19:06:49.067Z,36.35
2019-02-02T19:09:21.100Z,43.75
2019-02-02T19:11:53.323Z,43.58
2019-02-02T19:14:25.876Z,45.45
2019-02-02T19:17:01.210Z,46.00
2019-02-02T19:24:33.911Z,46.00
2019-02-02T19:27:05.798Z,45.65
2019-02-02T19:29:37.884Z,47.35
2019-02-02T19:32:10.809Z,45.55
2019-02-02T19:34:43.388Z,45.40
2019-02-02T19:37:15.993Z,41.83
2019-02-02T19:39:48.330Z,47.43
2019-02-02T19:42:21.347Z,47.62
2019-02-02T19:44:53.871Z,46.25
2019-02-02T19:47:26.485Z,45.23
2019-02-02T19:49:58.910Z,46.40
2019-02-02T19:52:31.094Z,43.60
2019-02-02T19:55:14.417Z,41.83
2019-02-02T19:57:37.277Z,46.02
2019-02-02T20:00:21.651Z,41.23
2019-02-02T20:02:54.285Z,31.85
2019-02-02T20:05:29.035Z,37.30
2019-02-02T20:08:00.668Z,37.30
2019-02-02T20:10:32.896Z,30.00
2019-02-02T20:13:05.321Z,33.40
2019-02-02T20:15:37.833Z,30.27
2019-02-02T20:18:10.697Z,35.17
2019-02-02T20:20:42.912Z,32.83
2019-02-02T20:23:15.893Z,33.73
2019-02-02T20:25:49.329Z,31.77
2019-02-02T20:28:22.084Z,38.35
2019-02-02T20:30:54.990Z,28.17
2019-02-02T20:33:28.096Z,35.58
2019-02-02T20:36:01.323Z,32.75
2019-02-02T20:38:33.903Z,36.03
2019-02-02T20:41:06.796Z,28.45
2019-02-02T20:43:39.468Z,32.65
2019-02-02T20:46:12.028Z,30.45
2019-02-02T20:48:44.724Z,32.15
2019-02-02T20:51:17.683Z,27.40
2019-02-02T20:56:23.917Z,29.40
2019-02-02T20:58:56.867Z,26.45
2019-02-02T21:01:29.339Z,28.95
2019-02-02T21:04:02.097Z,25.60
2019-02-02T21:06:34.923Z,27.75
2019-02-02T21:09:09.289Z,29.42
2019-02-02T21:11:42.056Z,28.85
2019-02-02T21:14:14.928Z,25.92
2019-02-02T21:16:47.911Z,25.72
2019-02-02T21:19:20.874Z,24.85
2019-02-02T21:21:53.511Z,26.40
2019-02-02T21:24:27.239Z,27.93
2019-02-02T21:27:00.071Z,27.75
2019-02-02T21:29:32.861Z,26.30
2019-02-02T21:32:05.332Z,25.62
2019-02-02T21:34:38.042Z,28.20
2019-02-02T21:37:10.940Z,25.80
2019-02-02T21:39:43.880Z,27.42
2019-02-02T21:42:17.099Z,29.48
2019-02-02T21:44:49.863Z,25.75
2019-02-02T21:47:22.409Z,27.27
2019-02-02T21:49:55.039Z,24.60
2019-02-02T21:52:28.318Z,28.38
2019-02-02T21:55:01.094Z,26.40
2019-02-02T21:57:34.028Z,30.68
2019-02-02T22:00:10.849Z,24.92
2019-02-02T22:02:44.328Z,27.65
2019-02-02T22:05:17.642Z,25.80
2019-02-02T22:07:50.319Z,26.90
2019-02-02T22:10:23.102Z,26.42
2019-02-02T22:12:56.026Z,26.10
2019-02-02T22:15:28.996Z,27.70
2019-02-02T22:18:02.340Z,30.02
2019-02-02T22:20:35.396Z,25.00
2019-02-02T22:23:08.042Z,25.15
2019-02-02T22:25:40.907Z,28.15
2019-02-02T22:28:13.896Z,28.62
2019-02-02T22:30:46.900Z,28.05
2019-02-02T22:33:19.484Z,25.23
2019-02-02T22:35:52.095Z,25.92
2019-02-02T22:38:24.926Z,27.55
2019-02-02T22:40:58.100Z,24.98
2019-02-02T22:43:31.077Z,26.85
2019-02-02T22:46:04.094Z,26.17
2019-02-02T22:48:37.039Z,24.95
2019-02-02T22:51:09.913Z,25.10
2019-02-02T22:53:42.883Z,27.50
2019-02-02T22:56:16.027Z,25.43
2019-02-02T22:58:49.396Z,25.10
2019-02-02T23:01:43.939Z,29.70
2019-02-02T23:05:00.021Z,27.67
2019-02-02T23:08:45.009Z,25.70
2019-02-02T23:12:24.451Z,28.60
2019-02-02T23:16:07.006Z,25.57
2019-02-02T23:18:40.101Z,26.37
2019-02-02T23:21:13.098Z,29.10
2019-02-02T23:23:46.041Z,27.35
2019-02-02T23:26:18.934Z,28.27
2019-02-02T23:28:51.986Z,24.90
2019-02-02T23:31:25.070Z,29.32
2019-02-02T23:33:57.883Z,26.37
2019-02-02T23:36:30.572Z,26.68
2019-02-02T23:39:03.140Z,25.10
2019-02-02T23:41:34.746Z,26.87
2019-02-02T23:46:37.314Z,26.57
2019-02-02T23:49:09.316Z,27.20
2019-02-02T23:51:40.881Z,27.20
2019-02-02T23:54:13.070Z,25.30
2019-02-02T23:56:44.752Z,28.15
